createdAt,value
2024-02-08T00:01:51.183Z,2.04
2024-02-08T00:04:24.174Z,2.03
2024-02-08T00:06:59.933Z,2.01
2024-02-08T00:09:32.452Z,1.98
2024-02-08T00:12:05.198Z,1.95
2024-02-08T00:14:35.274Z,1.93
2024-02-08T00:17:08.077Z,1.92
2024-02-08T00:19:41.117Z,1.88
2024-02-08T00:22:15.420Z,1.84
2024-02-08T00:24:50.998Z,1.80
2024-02-08T00:27:21.349Z,1.77
2024-02-08T00:29:54.326Z,1.73
2024-02-08T00:32:26.637Z,1.70
2024-02-08T00:35:10.377Z,1.66
2024-02-08T00:37:41.870Z,1.62
2024-02-08T00:40:14.321Z,1.62
2024-02-08T00:42:47.671Z,1.59
2024-02-08T00:45:23.659Z,1.56
2024-02-08T00:47:56.032Z,1.53
2024-02-08T00:50:31.324Z,1.53
2024-02-08T00:53:05.057Z,1.53
2024-02-08T00:55:35.370Z,1.52
2024-02-08T00:58:09.130Z,1.52
2024-02-08T01:00:42.065Z,1.52
2024-02-08T01:03:12.555Z,1.51
2024-02-08T01:05:50.318Z,1.49
2024-02-08T01:08:20.365Z,1.48
2024-02-08T01:10:52.991Z,1.46
2024-02-08T01:13:25.639Z,1.45
2024-02-08T01:15:55.927Z,1.43
2024-02-08T01:18:31.048Z,1.44
2024-02-08T01:21:03.946Z,1.45
2024-02-08T01:23:34.413Z,1.43
2024-02-08T01:26:05.501Z,1.41
2024-02-08T01:28:35.776Z,1.37
2024-02-08T01:31:06.424Z,1.33
2024-02-08T01:33:39.288Z,1.32
2024-02-08T01:36:12.672Z,1.26
2024-02-08T01:38:43.465Z,1.23
2024-02-08T01:41:18.313Z,1.22
2024-02-08T01:43:54.488Z,1.22
2024-02-08T01:46:27.016Z,1.23
2024-02-08T01:48:57.454Z,1.25
2024-02-08T01:51:32.720Z,1.25
2024-02-08T01:54:03.374Z,1.25
2024-02-08T01:56:35.504Z,1.25
2024-02-08T01:59:05.721Z,1.27
2024-02-08T02:01:35.889Z,1.25
2024-02-08T02:04:09.310Z,1.26
2024-02-08T02:06:42.809Z,1.27
2024-02-08T02:09:13.296Z,1.28
2024-02-08T02:11:48.244Z,1.28
2024-02-08T02:14:30.810Z,1.26
2024-02-08T02:17:13.996Z,1.25
2024-02-08T02:19:45.302Z,1.26
2024-02-08T02:22:23.768Z,1.24
2024-02-08T02:24:53.931Z,1.23
2024-02-08T02:27:24.126Z,1.24
2024-02-08T02:29:55.835Z,1.25
2024-02-08T02:32:32.439Z,1.25
2024-02-08T02:35:03.178Z,1.22
2024-02-08T02:37:36.514Z,1.18
2024-02-08T02:40:10.594Z,1.14
2024-02-08T02:42:40.866Z,1.12
2024-02-08T02:45:23.206Z,1.11
2024-02-08T02:47:55.229Z,1.10
2024-02-08T02:50:26.149Z,1.08
2024-02-08T02:53:04.343Z,1.06
2024-02-08T02:55:38.695Z,1.07
2024-02-08T02:58:11.283Z,1.10
2024-02-08T03:00:41.363Z,1.09
2024-02-08T03:03:14.190Z,1.10
2024-02-08T03:05:50.851Z,1.10
2024-02-08T03:08:26.436Z,1.08
2024-02-08T03:10:57.811Z,1.07
2024-02-08T03:13:27.967Z,1.08
2024-02-08T03:15:59.461Z,1.06
2024-02-08T03:18:30.590Z,1.04
2024-02-08T03:21:03.970Z,1.04
2024-02-08T03:23:39.770Z,1.00
2024-02-08T03:26:13.087Z,0.97
2024-02-08T03:28:47.846Z,0.98
2024-02-08T03:31:21.294Z,1.02
2024-02-08T03:33:57.620Z,1.03
2024-02-08T03:36:29.116Z,1.03
2024-02-08T03:39:05.487Z,1.01
2024-02-08T03:41:35.676Z,1.03
2024-02-08T03:44:09.001Z,1.04
2024-02-08T03:46:40.224Z,1.05
2024-02-08T03:49:14.021Z,1.07
2024-02-08T03:51:50.618Z,1.10
2024-02-08T03:54:27.833Z,1.10
2024-02-08T03:57:00.708Z,1.12
2024-02-08T03:59:32.075Z,1.13
2024-02-08T04:02:06.963Z,1.13
2024-02-08T04:04:51.394Z,1.12
2024-02-08T04:07:48.186Z,1.14
2024-02-08T04:10:31.262Z,1.12
2024-02-08T04:13:14.439Z,1.13
2024-02-08T04:16:12.029Z,1.13
2024-02-08T04:18:55.861Z,1.13
2024-02-08T04:21:47.974Z,1.14
2024-02-08T04:24:45.174Z,1.15
2024-02-08T04:27:30.375Z,1.16
2024-02-08T04:30:18.154Z,1.17
2024-02-08T04:33:03.049Z,1.18
2024-02-08T04:35:45.721Z,1.19
2024-02-08T04:38:28.186Z,1.19
2024-02-08T04:41:10.673Z,1.21
2024-02-08T04:44:01.984Z,1.22
2024-02-08T04:46:44.506Z,1.22
2024-02-08T04:49:30.467Z,1.22
2024-02-08T04:52:18.541Z,1.20
2024-02-08T04:54:48.650Z,1.22
2024-02-08T04:57:18.791Z,1.20
2024-02-08T04:59:54.441Z,1.20
2024-02-08T05:02:28.224Z,1.21
2024-02-08T05:04:58.399Z,1.21
2024-02-08T05:07:29.549Z,1.24
2024-02-08T05:10:00.395Z,1.24
2024-02-08T05:12:31.469Z,1.26
2024-02-08T05:15:04.155Z,1.27
2024-02-08T05:17:34.344Z,1.28
2024-02-08T05:20:05.584Z,1.30
2024-02-08T05:22:35.713Z,1.30
2024-02-08T05:25:11.527Z,1.30
2024-02-08T05:30:21.042Z,1.27
2024-02-08T05:32:53.117Z,1.25
2024-02-08T05:35:23.563Z,1.23
2024-02-08T05:37:55.050Z,1.16
2024-02-08T05:40:25.201Z,1.11
2024-02-08T05:42:56.025Z,1.08
2024-02-08T05:45:32.255Z,1.06
2024-02-08T05:48:07.654Z,1.08
2024-02-08T05:50:38.231Z,1.09
2024-02-08T05:53:10.657Z,1.08
2024-02-08T05:55:41.599Z,1.06
2024-02-08T05:58:17.888Z,1.02
2024-02-08T06:00:54.715Z,0.97
2024-02-08T06:03:35.502Z,0.90
2024-02-08T06:06:17.586Z,0.86
2024-02-08T06:08:48.120Z,0.85
2024-02-08T06:11:21.523Z,0.85
2024-02-08T06:13:56.683Z,0.84
2024-02-08T06:16:47.000Z,0.86
2024-02-08T06:19:19.528Z,0.84
2024-02-08T06:21:56.015Z,0.80
2024-02-08T06:24:47.916Z,0.75
2024-02-08T06:27:25.004Z,0.69
2024-02-08T06:29:55.234Z,0.69
2024-02-08T06:32:35.268Z,0.67
2024-02-08T06:35:13.557Z,0.58
2024-02-08T06:37:45.877Z,0.55
2024-02-08T06:40:23.353Z,0.52
2024-02-08T06:43:11.922Z,0.48
2024-02-08T06:46:11.446Z,0.50
2024-02-08T06:48:50.792Z,0.54
2024-02-08T06:51:33.399Z,0.56
2024-02-08T06:54:16.012Z,0.61
2024-02-08T06:56:58.676Z,0.60
2024-02-08T06:59:41.193Z,0.59
2024-02-08T07:02:24.258Z,0.59
2024-02-08T07:05:13.095Z,0.61
2024-02-08T07:07:56.968Z,0.58
2024-02-08T07:10:43.614Z,0.52
2024-02-08T07:13:26.639Z,0.42
2024-02-08T07:16:09.544Z,0.31
2024-02-08T07:18:55.619Z,0.27
2024-02-08T07:21:47.393Z,0.22
2024-02-08T07:24:29.890Z,0.25
2024-02-08T07:27:12.650Z,0.29
2024-02-08T07:29:56.294Z,0.31
2024-02-08T07:32:38.738Z,0.38
2024-02-08T07:35:21.840Z,0.36
2024-02-08T07:37:54.645Z,0.40
2024-02-08T07:40:28.508Z,0.48
2024-02-08T07:43:12.297Z,0.51
2024-02-08T07:45:42.407Z,0.50
2024-02-08T07:48:14.745Z,0.48
2024-02-08T07:50:51.650Z,0.44
2024-02-08T07:53:35.799Z,0.46
2024-02-08T07:56:18.780Z,0.53
2024-02-08T07:58:50.240Z,0.50
2024-02-08T08:01:22.104Z,0.51
2024-02-08T08:03:58.225Z,0.57
2024-02-08T08:06:36.248Z,0.59
2024-02-08T08:09:22.464Z,0.56
2024-02-08T08:11:54.079Z,0.56
2024-02-08T08:14:43.064Z,0.65
2024-02-08T08:17:32.184Z,0.73
2024-02-08T08:20:18.021Z,0.79
2024-02-08T08:22:56.247Z,0.86
2024-02-08T08:25:54.669Z,0.91
2024-02-08T08:28:37.243Z,0.96
2024-02-08T08:31:36.630Z,0.95
2024-02-08T08:34:21.920Z,0.95
2024-02-08T08:37:04.769Z,0.96
2024-02-08T08:39:48.724Z,0.96
2024-02-08T08:42:25.653Z,1.05
2024-02-08T08:44:58.795Z,1.12
2024-02-08T08:47:29.840Z,1.12
2024-02-08T08:50:19.546Z,1.04
2024-02-08T08:52:51.151Z,1.04
2024-02-08T08:55:22.066Z,1.10
2024-02-08T08:58:01.926Z,1.15
2024-02-08T09:00:37.909Z,1.21
2024-02-08T09:03:11.928Z,1.28
2024-02-08T09:05:44.972Z,1.33
2024-02-08T09:08:23.697Z,1.39
2024-02-08T09:10:58.112Z,1.42
2024-02-08T09:13:31.501Z,1.45
2024-02-08T09:16:22.223Z,1.47
2024-02-08T09:19:04.858Z,1.49
2024-02-08T09:21:37.246Z,1.48
2024-02-08T09:24:12.558Z,1.44
2024-02-08T09:27:02.430Z,1.44
2024-02-08T09:29:40.418Z,1.50
2024-02-08T09:32:38.978Z,1.51
2024-02-08T09:35:14.152Z,1.50
2024-02-08T09:37:47.716Z,1.59
2024-02-08T09:40:44.042Z,1.61
2024-02-08T09:43:21.017Z,1.65
2024-02-08T09:46:07.294Z,1.69
2024-02-08T09:48:49.337Z,1.75
2024-02-08T09:51:27.210Z,1.81
2024-02-08T09:54:16.588Z,1.84
2024-02-08T09:56:51.738Z,1.92
2024-02-08T09:59:41.972Z,1.95
2024-02-08T10:02:26.036Z,1.92
2024-02-08T10:05:00.273Z,1.97
2024-02-08T10:07:35.997Z,2.01
2024-02-08T10:10:19.610Z,2.04
2024-02-08T10:13:05.766Z,2.01
2024-02-08T10:15:45.685Z,1.99
2024-02-08T10:18:24.777Z,2.00
2024-02-08T10:20:59.894Z,1.98
2024-02-08T10:23:37.493Z,2.05
2024-02-08T10:26:20.336Z,2.19
2024-02-08T10:28:55.930Z,2.34
2024-02-08T10:31:30.404Z,2.45
2024-02-08T10:34:24.896Z,2.54
2024-02-08T10:36:56.666Z,2.67
2024-02-08T10:39:33.799Z,2.78
2024-02-08T10:42:05.242Z,2.93
2024-02-08T10:44:36.952Z,3.04
2024-02-08T10:47:11.401Z,3.11
2024-02-08T10:49:51.797Z,3.14
2024-02-08T10:52:23.995Z,3.16
2024-02-08T10:54:57.204Z,3.19
2024-02-08T10:57:41.487Z,3.18
2024-02-08T11:00:28.983Z,3.29
2024-02-08T11:03:10.280Z,3.42
2024-02-08T11:05:50.672Z,3.57
2024-02-08T11:08:34.753Z,3.81
2024-02-08T11:11:11.667Z,4.10
2024-02-08T11:13:47.028Z,4.41
2024-02-08T11:16:24.623Z,4.74
2024-02-08T11:18:57.216Z,4.97
2024-02-08T11:21:44.256Z,5.12
2024-02-08T11:24:30.139Z,5.33
2024-02-08T11:27:04.320Z,5.52
2024-02-08T11:29:47.320Z,5.62
2024-02-08T11:32:20.258Z,5.79
2024-02-08T11:34:56.458Z,6.00
2024-02-08T11:37:39.940Z,6.14
2024-02-08T11:40:13.447Z,6.25
2024-02-08T11:42:43.830Z,6.27
2024-02-08T11:45:23.697Z,6.33
2024-02-08T11:47:59.757Z,6.37
2024-02-08T11:50:37.793Z,6.43
2024-02-08T11:53:10.999Z,6.40
2024-02-08T11:55:41.219Z,6.30
2024-02-08T11:58:13.298Z,6.26
2024-02-08T12:00:50.713Z,6.26
2024-02-08T12:03:22.061Z,6.19
2024-02-08T12:05:58.759Z,6.07
2024-02-08T12:08:37.732Z,5.92
2024-02-08T12:11:13.633Z,5.71
2024-02-08T12:13:46.540Z,5.57
2024-02-08T12:16:18.802Z,5.52
2024-02-08T12:18:49.059Z,5.45
2024-02-08T12:21:24.733Z,5.39
2024-02-08T12:23:59.099Z,5.38
2024-02-08T12:26:33.065Z,5.41
2024-02-08T12:29:07.899Z,5.43
2024-02-08T12:31:40.047Z,5.46
2024-02-08T12:34:10.598Z,5.46
2024-02-08T12:36:41.830Z,5.46
2024-02-08T12:39:21.872Z,5.51
2024-02-08T12:41:54.922Z,5.55
2024-02-08T12:44:26.030Z,5.55
2024-02-08T12:47:00.341Z,5.53
2024-02-08T12:49:35.101Z,5.47
2024-02-08T12:52:07.160Z,5.38
2024-02-08T12:54:39.967Z,5.31
2024-02-08T12:57:12.187Z,5.28
2024-02-08T12:59:44.262Z,5.29
2024-02-08T13:02:20.360Z,5.27
2024-02-08T13:04:52.265Z,5.21
2024-02-08T13:07:27.083Z,5.16
2024-02-08T13:10:16.486Z,5.13
2024-02-08T13:12:49.056Z,5.08
2024-02-08T13:15:24.501Z,5.02
2024-02-08T13:17:57.927Z,4.99
2024-02-08T13:20:28.823Z,4.92
2024-02-08T13:22:59.310Z,4.88
2024-02-08T13:25:32.075Z,4.83
2024-02-08T13:28:03.754Z,4.74
2024-02-08T13:30:38.171Z,4.72
2024-02-08T13:33:12.633Z,4.76
2024-02-08T13:35:47.430Z,4.79
2024-02-08T13:38:23.043Z,4.80
2024-02-08T13:41:00.967Z,4.78
2024-02-08T13:43:32.325Z,4.78
2024-02-08T13:46:03.216Z,4.77
2024-02-08T13:48:33.509Z,4.78
2024-02-08T13:53:52.081Z,4.78
2024-02-08T13:56:24.771Z,4.76
2024-02-08T13:58:56.749Z,4.77
2024-02-08T14:01:27.738Z,4.74
2024-02-08T14:04:08.477Z,4.71
2024-02-08T14:06:42.654Z,4.69
2024-02-08T14:09:25.285Z,4.70
2024-02-08T14:12:00.255Z,4.69
2024-02-08T14:14:42.045Z,4.66
2024-02-08T14:17:12.682Z,4.67
2024-02-08T14:19:45.239Z,4.66
2024-02-08T14:22:17.898Z,4.65
2024-02-08T14:24:55.251Z,4.63
2024-02-08T14:27:29.875Z,4.63
2024-02-08T14:30:06.822Z,4.58
2024-02-08T14:32:37.228Z,4.56
2024-02-08T14:35:18.056Z,4.56
2024-02-08T14:37:48.904Z,4.49
2024-02-08T14:40:19.330Z,4.46
2024-02-08T14:42:52.047Z,4.42
2024-02-08T14:45:26.076Z,4.37
2024-02-08T14:48:01.894Z,4.32
2024-02-08T14:50:44.262Z,4.29
2024-02-08T14:53:14.513Z,4.27
2024-02-08T14:55:46.786Z,4.27
2024-02-08T14:58:32.038Z,4.28
2024-02-08T15:01:09.605Z,4.27
2024-02-08T15:03:40.116Z,4.27
2024-02-08T15:06:31.268Z,4.23
2024-02-08T15:09:26.492Z,4.20
2024-02-08T15:11:59.379Z,4.14
2024-02-08T15:14:37.177Z,4.16
2024-02-08T15:17:25.075Z,4.22
2024-02-08T15:20:01.108Z,4.22
2024-02-08T15:22:48.158Z,4.23
2024-02-08T15:25:19.398Z,4.19
2024-02-08T15:27:54.635Z,4.13
2024-02-08T15:30:38.284Z,4.09
2024-02-08T15:33:18.537Z,4.10
2024-02-08T15:36:01.125Z,4.11
2024-02-08T15:38:46.643Z,4.11
2024-02-08T15:41:21.072Z,4.11
2024-02-08T15:43:49.968Z,4.13
2024-02-08T15:46:29.622Z,4.10
2024-02-08T15:49:01.581Z,4.04
2024-02-08T15:51:38.487Z,3.99
2024-02-08T15:54:24.508Z,3.99
2024-02-08T15:56:57.564Z,3.96
2024-02-08T15:59:29.044Z,3.92
2024-02-08T16:01:59.679Z,3.88
2024-02-08T16:04:46.782Z,3.87
2024-02-08T16:07:20.669Z,3.86
2024-02-08T16:09:51.514Z,3.85
2024-02-08T16:12:38.172Z,3.83
2024-02-08T16:15:09.776Z,3.78
2024-02-08T16:17:59.767Z,3.74
2024-02-08T16:20:40.189Z,3.71
2024-02-08T16:23:17.510Z,3.67
2024-02-08T16:26:07.667Z,3.65
2024-02-08T16:28:47.167Z,3.62
2024-02-08T16:31:33.197Z,3.58
2024-02-08T16:34:19.954Z,3.57
2024-02-08T16:36:53.349Z,3.55
2024-02-08T16:39:35.389Z,3.56
2024-02-08T16:42:19.520Z,3.58
2024-02-08T16:44:58.332Z,3.63
2024-02-08T16:47:36.110Z,3.65
2024-02-08T16:50:19.308Z,3.67
2024-02-08T16:52:59.493Z,3.68
2024-02-08T16:55:38.467Z,3.69
2024-02-08T16:58:30.144Z,3.66
2024-02-08T17:01:06.763Z,3.63
2024-02-08T17:03:49.550Z,3.60
2024-02-08T17:06:28.449Z,3.58
2024-02-08T17:09:17.494Z,3.58
2024-02-08T17:12:00.082Z,3.57
2024-02-08T17:14:48.275Z,3.60
2024-02-08T17:17:36.920Z,3.59
2024-02-08T17:20:24.063Z,3.61
2024-02-08T17:23:17.786Z,3.63
2024-02-08T17:25:57.023Z,3.64
2024-02-08T17:28:38.909Z,3.66
2024-02-08T17:31:23.546Z,3.65
2024-02-08T17:33:58.214Z,3.63
2024-02-08T17:36:32.395Z,3.59
2024-02-08T17:39:12.326Z,3.59
2024-02-08T17:41:44.512Z,3.59
2024-02-08T17:44:17.733Z,3.58
2024-02-08T17:46:54.382Z,3.57
2024-02-08T17:49:26.623Z,3.58
2024-02-08T17:51:58.199Z,3.55
2024-02-08T17:54:33.697Z,3.56
2024-02-08T17:57:13.077Z,3.55
2024-02-08T17:59:47.031Z,3.53
2024-02-08T18:02:24.486Z,3.50
2024-02-08T18:04:54.867Z,3.46
2024-02-08T18:07:25.093Z,3.44
2024-02-08T18:10:12.531Z,3.40
2024-02-08T18:12:43.451Z,3.37
2024-02-08T18:15:23.528Z,3.36
2024-02-08T18:17:57.079Z,3.32
2024-02-08T18:20:31.734Z,3.21
2024-02-08T18:23:04.107Z,3.19
2024-02-08T18:25:39.393Z,3.15
2024-02-08T18:28:11.314Z,3.10
2024-02-08T18:30:46.773Z,3.07
2024-02-08T18:33:18.723Z,3.04
2024-02-08T18:35:54.633Z,3.05
2024-02-08T18:38:27.296Z,3.03
2024-02-08T18:41:02.759Z,3.02
2024-02-08T18:43:34.916Z,3.00
2024-02-08T18:46:07.580Z,2.98
2024-02-08T18:48:44.214Z,2.94
2024-02-08T18:51:17.291Z,2.91
2024-02-08T18:53:51.560Z,2.86
2024-02-08T18:56:27.224Z,2.81
2024-02-08T18:59:01.230Z,2.74
2024-02-08T19:01:31.671Z,2.69
2024-02-08T19:04:04.230Z,2.63
2024-02-08T19:06:35.196Z,2.62
2024-02-08T19:09:08.534Z,2.60
2024-02-08T19:11:46.117Z,2.56
2024-02-08T19:14:17.609Z,2.53
2024-02-08T19:16:47.855Z,2.52
2024-02-08T19:19:24.726Z,2.50
2024-02-08T19:21:55.453Z,2.50
2024-02-08T19:24:30.124Z,2.49
2024-02-08T19:27:03.114Z,2.52
2024-02-08T19:29:34.102Z,2.51
2024-02-08T19:32:08.818Z,2.49
2024-02-08T19:34:41.212Z,2.47
2024-02-08T19:37:13.422Z,2.46
2024-02-08T19:39:43.533Z,2.45
2024-02-08T19:42:23.604Z,2.43
2024-02-08T19:44:57.670Z,2.43
2024-02-08T19:47:31.270Z,2.41
2024-02-08T19:50:07.308Z,2.39
2024-02-08T19:52:41.825Z,2.38
2024-02-08T19:55:24.692Z,2.39
2024-02-08T19:58:14.330Z,2.39
2024-02-08T20:00:50.136Z,2.36
2024-02-08T20:03:28.397Z,2.33
2024-02-08T20:06:02.059Z,2.28
2024-02-08T20:08:32.685Z,2.26
2024-02-08T20:11:12.739Z,2.24
2024-02-08T20:13:47.653Z,2.24
2024-02-08T20:16:28.102Z,2.19
2024-02-08T20:18:59.584Z,2.17
2024-02-08T20:21:32.943Z,2.14
2024-02-08T20:24:06.597Z,2.14
2024-02-08T20:26:39.357Z,2.14
2024-02-08T20:29:16.072Z,2.09
2024-02-08T20:31:51.070Z,2.07
2024-02-08T20:34:21.195Z,2.06
2024-02-08T20:36:51.899Z,2.06
2024-02-08T20:39:23.459Z,2.06
2024-02-08T20:41:55.063Z,2.06
2024-02-08T20:44:30.706Z,2.07
2024-02-08T20:47:02.534Z,2.06
2024-02-08T20:49:36.161Z,2.07
2024-02-08T20:52:08.303Z,2.08
2024-02-08T20:54:41.874Z,2.06
2024-02-08T20:57:12.486Z,2.04
2024-02-08T20:59:47.901Z,2.03
2024-02-08T21:02:20.114Z,2.03
2024-02-08T21:04:50.768Z,2.01
2024-02-08T21:07:21.932Z,2.01
2024-02-08T21:09:54.505Z,2.01
2024-02-08T21:12:24.733Z,2.00
2024-02-08T21:14:59.921Z,2.00
2024-02-08T21:17:30.489Z,2.00
2024-02-08T21:20:00.844Z,2.00
2024-02-08T21:22:31.189Z,2.00
2024-02-08T21:25:01.575Z,1.99
2024-02-08T21:27:34.977Z,2.00
2024-02-08T21:30:12.926Z,2.02
2024-02-08T21:32:48.044Z,2.00
2024-02-08T21:35:18.826Z,2.02
2024-02-08T21:37:48.959Z,1.97
2024-02-08T21:40:19.224Z,1.93
2024-02-08T21:42:51.364Z,1.90
2024-02-08T21:45:24.506Z,1.89
2024-02-08T21:47:54.631Z,1.88
2024-02-08T21:50:24.908Z,1.90
2024-02-08T21:52:55.212Z,1.90
2024-02-08T21:55:26.109Z,1.89
2024-02-08T21:57:56.251Z,1.85
2024-02-08T22:00:33.806Z,1.85
2024-02-08T22:03:04.340Z,1.84
2024-02-08T22:05:37.030Z,1.84
2024-02-08T22:08:07.865Z,1.87
2024-02-08T22:10:40.578Z,1.88
2024-02-08T22:13:11.923Z,1.86
2024-02-08T22:15:44.843Z,1.83
2024-02-08T22:18:16.130Z,1.81
2024-02-08T22:20:46.381Z,1.81
2024-02-08T22:23:16.593Z,1.81
2024-02-08T22:25:47.777Z,1.82
2024-02-08T22:28:18.738Z,1.82
2024-02-08T22:30:51.597Z,1.81
2024-02-08T22:33:22.716Z,1.77
2024-02-08T22:35:53.977Z,1.75
2024-02-08T22:38:24.085Z,1.75
2024-02-08T22:40:59.590Z,1.75
2024-02-08T22:43:29.946Z,1.74
2024-02-08T22:46:02.686Z,1.73
2024-02-08T22:48:32.763Z,1.71
2024-02-08T22:51:03.396Z,1.70
2024-02-08T22:53:35.670Z,1.70
2024-02-08T22:56:07.265Z,1.73
2024-02-08T22:58:37.400Z,1.73
2024-02-08T23:01:24.061Z,1.72
2024-02-08T23:03:54.583Z,1.69
2024-02-08T23:06:24.842Z,1.67
2024-02-08T23:08:55.922Z,1.66
2024-02-08T23:11:26.035Z,1.68
2024-02-08T23:13:56.126Z,1.72
2024-02-08T23:16:31.485Z,1.73
2024-02-08T23:19:03.167Z,1.74
2024-02-08T23:21:34.436Z,1.74
2024-02-08T23:24:14.319Z,1.74
2024-02-08T23:26:45.043Z,1.74
2024-02-08T23:29:15.089Z,1.73
2024-02-08T23:31:52.674Z,1.74
2024-02-08T23:34:25.616Z,1.74
2024-02-08T23:36:58.686Z,1.67
2024-02-08T23:39:29.424Z,1.64
2024-02-08T23:42:00.579Z,1.64
2024-02-08T23:44:31.328Z,1.64
2024-02-08T23:47:06.629Z,1.64
2024-02-08T23:49:37.110Z,1.63
2024-02-08T23:52:13.515Z,1.62
2024-02-08T23:54:45.077Z,1.62
2024-02-08T23:57:16.388Z,1.63
2024-02-08T23:59:51.528Z,1.62
